sensor_id;sensor_type;location;lat;lon;timestamp;pressure;altitude;pressure_sealevel;temperature;humidity
49297;BME280;35163;48.878;18.040;2023-04-28T00:00:31;98855.75;;;6.88;56.52
49297;BME280;35163;48.878;18.040;2023-04-28T00:02:58;98850.66;;;6.82;57.06
49297;BME280;35163;48.878;18.040;2023-04-28T00:05:25;98853.22;;;6.82;56.71
49297;BME280;35163;48.878;18.040;2023-04-28T00:07:52;98850.72;;;6.76;56.57
49297;BME280;35163;48.878;18.040;2023-04-28T00:10:19;98849.84;;;6.75;55.96
49297;BME280;35163;48.878;18.040;2023-04-28T00:12:45;98854.13;;;6.78;55.44
49297;BME280;35163;48.878;18.040;2023-04-28T00:15:12;98855.78;;;6.84;53.75
49297;BME280;35163;48.878;18.040;2023-04-28T00:17:39;98849.81;;;6.83;54.05
49297;BME280;35163;48.878;18.040;2023-04-28T00:20:06;98848.16;;;6.76;54.45
49297;BME280;35163;48.878;18.040;2023-04-28T00:22:33;98853.28;;;6.76;54.62
49297;BME280;35163;48.878;18.040;2023-04-28T00:24:59;98846.47;;;6.72;54.11
49297;BME280;35163;48.878;18.040;2023-04-28T00:27:26;98859.28;;;6.73;53.84
49297;BME280;35163;48.878;18.040;2023-04-28T00:29:53;98852.53;;;6.66;54.46
49297;BME280;35163;48.878;18.040;2023-04-28T00:32:23;98849.94;;;6.66;54.62
49297;BME280;35163;48.878;18.040;2023-04-28T00:34:50;98853.41;;;6.60;55.10
49297;BME280;35163;48.878;18.040;2023-04-28T00:37:17;98854.25;;;6.64;54.70
49297;BME280;35163;48.878;18.040;2023-04-28T00:39:43;98853.38;;;6.65;54.47
49297;BME280;35163;48.878;18.040;2023-04-28T00:42:13;98850.81;;;6.65;53.92
49297;BME280;35163;48.878;18.040;2023-04-28T00:44:40;98847.38;;;6.63;53.54
49297;BME280;35163;48.878;18.040;2023-04-28T00:47:10;98843.19;;;6.51;53.87
49297;BME280;35163;48.878;18.040;2023-04-28T00:49:37;98850.09;;;6.47;54.38
49297;BME280;35163;48.878;18.040;2023-04-28T00:52:05;98855.31;;;6.38;56.24
49297;BME280;35163;48.878;18.040;2023-04-28T00:54:32;98857.88;;;6.38;57.04
49297;BME280;35163;48.878;18.040;2023-04-28T00:57:01;98861.28;;;6.40;57.23
49297;BME280;35163;48.878;18.040;2023-04-28T00:59:30;98854.47;;;6.32;57.34
49297;BME280;35163;48.878;18.040;2023-04-28T01:01:58;98857.09;;;6.26;57.74
49297;BME280;35163;48.878;18.040;2023-04-28T01:04:28;98856.28;;;6.21;57.95
49297;BME280;35163;48.878;18.040;2023-04-28T01:06:55;98855.47;;;6.13;58.14
49297;BME280;35163;48.878;18.040;2023-04-28T01:09:22;98858.91;;;6.10;58.37
49297;BME280;35163;48.878;18.040;2023-04-28T01:11:49;98856.38;;;6.05;58.47
49297;BME280;35163;48.878;18.040;2023-04-28T01:14:15;98854.63;;;6.01;58.79
49297;BME280;35163;48.878;18.040;2023-04-28T01:16:43;98861.50;;;6.02;58.92
49297;BME280;35163;48.878;18.040;2023-04-28T01:19:16;98862.31;;;6.03;59.01
49297;BME280;35163;48.878;18.040;2023-04-28T01:21:45;98859.78;;;5.98;59.09
49297;BME280;35163;48.878;18.040;2023-04-28T01:24:12;98851.25;;;5.99;58.30
49297;BME280;35163;48.878;18.040;2023-04-28T01:26:38;98847.78;;;6.02;57.45
49297;BME280;35163;48.878;18.040;2023-04-28T01:29:05;98850.38;;;6.05;56.24
49297;BME280;35163;48.878;18.040;2023-04-28T01:31:32;98854.63;;;6.12;55.68
49297;BME280;35163;48.878;18.040;2023-04-28T01:33:59;98860.63;;;6.06;56.02
49297;BME280;35163;48.878;18.040;2023-04-28T01:36:26;98853.78;;;6.02;56.11
49297;BME280;35163;48.878;18.040;2023-04-28T01:38:54;98853.81;;;5.96;56.68
49297;BME280;35163;48.878;18.040;2023-04-28T01:41:21;98856.38;;;6.02;56.03
49297;BME280;35163;48.878;18.040;2023-04-28T01:43:51;98855.56;;;5.91;57.09
49297;BME280;35163;48.878;18.040;2023-04-28T01:46:17;98859.00;;;5.90;56.45
49297;BME280;35163;48.878;18.040;2023-04-28T01:48:44;98862.41;;;5.86;56.99
49297;BME280;35163;48.878;18.040;2023-04-28T01:51:11;98864.19;;;5.82;57.09
49297;BME280;35163;48.878;18.040;2023-04-28T01:53:37;98871.84;;;5.80;57.70
49297;BME280;35163;48.878;18.040;2023-04-28T01:56:04;98858.22;;;5.75;58.40
49297;BME280;35163;48.878;18.040;2023-04-28T01:58:31;98863.38;;;5.69;58.66
49297;BME280;35163;48.878;18.040;2023-04-28T02:00:58;98858.25;;;5.63;58.96
49297;BME280;35163;48.878;18.040;2023-04-28T02:03:24;98859.97;;;5.61;58.94
49297;BME280;35163;48.878;18.040;2023-04-28T02:05:51;98858.28;;;5.59;59.19
49297;BME280;35163;48.878;18.040;2023-04-28T02:08:18;98855.72;;;5.58;59.96
49297;BME280;35163;48.878;18.040;2023-04-28T02:10:44;98862.56;;;5.56;60.15
49297;BME280;35163;48.878;18.040;2023-04-28T02:13:11;98854.88;;;5.51;60.60
49297;BME280;35163;48.878;18.040;2023-04-28T02:15:42;98867.72;;;5.46;60.55
49297;BME280;35163;48.878;18.040;2023-04-28T02:18:09;98862.56;;;5.51;58.61
49297;BME280;35163;48.878;18.040;2023-04-28T02:20:36;98863.44;;;5.49;58.40
49297;BME280;35163;48.878;18.040;2023-04-28T02:23:02;98865.19;;;5.42;59.12
49297;BME280;35163;48.878;18.040;2023-04-28T02:25:29;98860.03;;;5.42;58.38
49297;BME280;35163;48.878;18.040;2023-04-28T02:27:56;98860.91;;;5.42;58.87
49297;BME280;35163;48.878;18.040;2023-04-28T02:30:23;98860.91;;;5.42;58.60
49297;BME280;35163;48.878;18.040;2023-04-28T02:32:49;98863.47;;;5.38;59.85
49297;BME280;35163;48.878;18.040;2023-04-28T02:35:16;98866.06;;;5.33;60.45
49297;BME280;35163;48.878;18.040;2023-04-28T02:37:43;98862.66;;;5.29;59.51
49297;BME280;35163;48.878;18.040;2023-04-28T02:40:10;98853.25;;;5.28;59.48
49297;BME280;35163;48.878;18.040;2023-04-28T02:42:36;98851.53;;;5.26;60.00
49297;BME280;35163;48.878;18.040;2023-04-28T02:45:04;98863.53;;;5.25;60.40
49297;BME280;35163;48.878;18.040;2023-04-28T02:47:31;98855.84;;;5.23;60.51
49297;BME280;35163;48.878;18.040;2023-04-28T02:49:57;98854.13;;;5.18;60.50
49297;BME280;35163;48.878;18.040;2023-04-28T02:52:24;98840.44;;;5.19;60.15
49297;BME280;35163;48.878;18.040;2023-04-28T02:54:51;98843.03;;;5.16;60.17
49297;BME280;35163;48.878;18.040;2023-04-28T02:57:20;98848.16;;;5.17;60.30
49297;BME280;35163;48.878;18.040;2023-04-28T02:59:46;98848.16;;;5.13;60.49
49297;BME280;35163;48.878;18.040;2023-04-28T03:02:13;98854.13;;;5.10;60.88
49297;BME280;35163;48.878;18.040;2023-04-28T03:04:41;98850.72;;;5.14;61.21
49297;BME280;35163;48.878;18.040;2023-04-28T03:07:08;98855.00;;;5.12;61.32
49297;BME280;35163;48.878;18.040;2023-04-28T03:09:34;98848.16;;;5.13;60.04
49297;BME280;35163;48.878;18.040;2023-04-28T03:12:01;98854.16;;;5.15;60.23
49297;BME280;35163;48.878;18.040;2023-04-28T03:14:28;98852.44;;;5.09;60.33
49297;BME280;35163;48.878;18.040;2023-04-28T03:16:55;98861.00;;;5.09;60.81
49297;BME280;35163;48.878;18.040;2023-04-28T03:19:23;98851.56;;;5.08;61.43
49297;BME280;35163;48.878;18.040;2023-04-28T03:21:49;98858.44;;;5.08;61.40
49297;BME280;35163;48.878;18.040;2023-04-28T03:24:16;98855.03;;;5.04;61.87
49297;BME280;35163;48.878;18.040;2023-04-28T03:26:43;98861.84;;;5.05;61.56
49297;BME280;35163;48.878;18.040;2023-04-28T03:29:10;98857.59;;;5.01;61.33
49297;BME280;35163;48.878;18.040;2023-04-28T03:31:36;98855.88;;;5.00;61.39
49297;BME280;35163;48.878;18.040;2023-04-28T03:34:03;98849.91;;;5.01;61.99
49297;BME280;35163;48.878;18.040;2023-04-28T03:36:30;98848.19;;;5.00;62.00
49297;BME280;35163;48.878;18.040;2023-04-28T03:38:57;98846.47;;;4.99;61.95
49297;BME280;35163;48.878;18.040;2023-04-28T03:41:24;98844.75;;;4.98;62.09
49297;BME280;35163;48.878;18.040;2023-04-28T03:43:50;98847.31;;;4.96;62.22
49297;BME280;35163;48.878;18.040;2023-04-28T03:46:18;98851.59;;;4.93;62.54
49297;BME280;35163;48.878;18.040;2023-04-28T03:48:45;98849.03;;;4.93;62.29
49297;BME280;35163;48.878;18.040;2023-04-28T03:51:12;98846.47;;;4.93;62.19
49297;BME280;35163;48.878;18.040;2023-04-28T03:53:38;98840.50;;;4.95;62.64
49297;BME280;35163;48.878;18.040;2023-04-28T03:56:05;98843.06;;;4.97;61.26
49297;BME280;35163;48.878;18.040;2023-04-28T03:58:32;98838.78;;;4.93;61.88
49297;BME280;35163;48.878;18.040;2023-04-28T04:00:58;98837.97;;;4.92;62.20
49297;BME280;35163;48.878;18.040;2023-04-28T04:03:26;98849.03;;;4.93;62.38
49297;BME280;35163;48.878;18.040;2023-04-28T04:05:53;98839.63;;;4.98;60.34
49297;BME280;35163;48.878;18.040;2023-04-28T04:08:21;98849.91;;;5.01;59.80
49297;BME280;35163;48.878;18.040;2023-04-28T04:10:47;98854.16;;;5.05;59.94
49297;BME280;35163;48.878;18.040;2023-04-28T04:13:14;98846.44;;;5.08;59.93
49297;BME280;35163;48.878;18.040;2023-04-28T04:15:41;98848.16;;;5.13;58.92
49297;BME280;35163;48.878;18.040;2023-04-28T04:18:07;98863.53;;;5.13;59.76
49297;BME280;35163;48.878;18.040;2023-04-28T04:20:34;98856.72;;;5.05;60.89
49297;BME280;35163;48.878;18.040;2023-04-28T04:23:01;98860.16;;;5.04;61.47
49297;BME280;35163;48.878;18.040;2023-04-28T04:25:29;98862.72;;;5.06;61.38
49297;BME280;35163;48.878;18.040;2023-04-28T04:27:56;98861.00;;;5.06;61.73
49297;BME280;35163;48.878;18.040;2023-04-28T04:30:22;98865.28;;;5.04;61.89
49297;BME280;35163;48.878;18.040;2023-04-28T04:32:49;98855.03;;;5.01;61.58
49297;BME280;35163;48.878;18.040;2023-04-28T04:35:16;98868.69;;;5.03;62.36
49297;BME280;35163;48.878;18.040;2023-04-28T04:37:43;98861.84;;;5.02;61.57
49297;BME280;35163;48.878;18.040;2023-04-28T04:40:10;98871.25;;;5.03;61.79
49297;BME280;35163;48.878;18.040;2023-04-28T04:42:37;98870.41;;;5.03;61.38
49297;BME280;35163;48.878;18.040;2023-04-28T04:45:04;98869.53;;;5.04;61.86
49297;BME280;35163;48.878;18.040;2023-04-28T04:47:30;98867.84;;;4.96;61.89
49297;BME280;35163;48.878;18.040;2023-04-28T04:49:57;98877.22;;;5.10;62.26
49297;BME280;35163;48.878;18.040;2023-04-28T04:52:24;98871.22;;;5.14;62.55
49297;BME280;35163;48.878;18.040;2023-04-28T04:54:51;98872.06;;;5.21;62.60
49297;BME280;35163;48.878;18.040;2023-04-28T04:57:17;98871.22;;;5.28;61.96
49297;BME280;35163;48.878;18.040;2023-04-28T04:59:44;98870.34;;;5.29;61.88
49297;BME280;35163;48.878;18.040;2023-04-28T05:02:11;98872.88;;;5.32;61.68
49297;BME280;35163;48.878;18.040;2023-04-28T05:04:38;98872.03;;;5.37;61.56
49297;BME280;35163;48.878;18.040;2023-04-28T05:07:04;98875.44;;;5.42;61.37
49297;BME280;35163;48.878;18.040;2023-04-28T05:09:32;98871.16;;;5.45;61.24
49297;BME280;35163;48.878;18.040;2023-04-28T05:12:00;98870.25;;;5.61;59.15
49297;BME280;35163;48.878;18.040;2023-04-28T05:14:27;98869.38;;;5.65;59.66
49297;BME280;35163;48.878;18.040;2023-04-28T05:16:53;98867.66;;;5.71;59.42
49297;BME280;35163;48.878;18.040;2023-04-28T05:19:20;98863.34;;;5.78;58.95
49297;BME280;35163;48.878;18.040;2023-04-28T05:21:47;98866.72;;;5.87;58.24
49297;BME280;35163;48.878;18.040;2023-04-28T05:24:14;98864.97;;;5.92;58.77
49297;BME280;35163;48.878;18.040;2023-04-28T05:26:41;98875.22;;;5.95;59.47
49297;BME280;35163;48.878;18.040;2023-04-28T05:29:08;98870.06;;;5.98;60.37
49297;BME280;35163;48.878;18.040;2023-04-28T05:31:37;98870.06;;;6.00;60.31
49297;BME280;35163;48.878;18.040;2023-04-28T05:34:04;98864.91;;;6.07;60.94
49297;BME280;35163;48.878;18.040;2023-04-28T05:36:31;98869.16;;;6.13;61.28
49297;BME280;35163;48.878;18.040;2023-04-28T05:38:57;98864.84;;;6.17;60.66
49297;BME280;35163;48.878;18.040;2023-04-28T05:41:24;98858.84;;;6.21;60.50
49297;BME280;35163;48.878;18.040;2023-04-28T05:43:51;98863.06;;;6.30;60.30
49297;BME280;35163;48.878;18.040;2023-04-28T05:46:20;98863.78;;;6.48;59.66
49297;BME280;35163;48.878;18.040;2023-04-28T05:48:56;98866.19;;;6.68;59.15
49297;BME280;35163;48.878;18.040;2023-04-28T05:51:23;98856.56;;;6.90;58.77
49297;BME280;35163;48.878;18.040;2023-04-28T05:53:50;98855.47;;;7.15;57.86
49297;BME280;35163;48.878;18.040;2023-04-28T05:56:17;98857.72;;;7.46;58.29
49297;BME280;35163;48.878;18.040;2023-04-28T05:58:43;98856.59;;;7.69;57.08
49297;BME280;35163;48.878;18.040;2023-04-28T06:01:10;98858.09;;;7.86;54.46
49297;BME280;35163;48.878;18.040;2023-04-28T06:03:37;98861.28;;;8.03;54.20
49297;BME280;35163;48.878;18.040;2023-04-28T06:06:06;98855.91;;;8.19;52.65
49297;BME280;35163;48.878;18.040;2023-04-28T06:08:36;98858.19;;;8.41;52.94
49297;BME280;35163;48.878;18.040;2023-04-28T06:11:03;98855.19;;;8.68;51.44
49297;BME280;35163;48.878;18.040;2023-04-28T06:13:29;98853.81;;;8.98;50.08
49297;BME280;35163;48.878;18.040;2023-04-28T06:15:56;98845.66;;;9.22;49.40
49297;BME280;35163;48.878;18.040;2023-04-28T06:18:23;98852.00;;;9.50;49.58
49297;BME280;35163;48.878;18.040;2023-04-28T06:20:49;98846.97;;;9.84;49.91
49297;BME280;35163;48.878;18.040;2023-04-28T06:23:16;98843.94;;;10.05;48.21
49297;BME280;35163;48.878;18.040;2023-04-28T06:25:43;98841.84;;;10.23;48.42
49297;BME280;35163;48.878;18.040;2023-04-28T06:28:10;98846.56;;;10.41;47.81
49297;BME280;35163;48.878;18.040;2023-04-28T06:30:38;98842.75;;;10.58;46.19
49297;BME280;35163;48.878;18.040;2023-04-28T06:33:05;98839.66;;;10.78;46.15
49297;BME280;35163;48.878;18.040;2023-04-28T06:35:32;98842.41;;;11.07;46.39
49297;BME280;35163;48.878;18.040;2023-04-28T06:38:01;98844.44;;;11.27;45.26
49297;BME280;35163;48.878;18.040;2023-04-28T06:40:30;98831.56;;;11.56;44.92
49297;BME280;35163;48.878;18.040;2023-04-28T06:42:57;98838.06;;;11.70;44.01
49297;BME280;35163;48.878;18.040;2023-04-28T06:45:23;98837.25;;;11.98;44.01
49297;BME280;35163;48.878;18.040;2023-04-28T06:47:50;98840.91;;;12.21;44.05
49297;BME280;35163;48.878;18.040;2023-04-28T06:50:18;98837.53;;;12.46;42.89
49297;BME280;35163;48.878;18.040;2023-04-28T06:52:47;98835.53;;;12.54;41.75
49297;BME280;35163;48.878;18.040;2023-04-28T06:55:15;98839.72;;;12.58;41.34
49297;BME280;35163;48.878;18.040;2023-04-28T06:57:45;98839.16;;;12.75;41.13
49297;BME280;35163;48.878;18.040;2023-04-28T07:00:12;98835.94;;;12.94;41.10
49297;BME280;35163;48.878;18.040;2023-04-28T07:02:39;98830.16;;;13.11;40.54
49297;BME280;35163;48.878;18.040;2023-04-28T07:05:06;98827.16;;;13.22;39.45
49297;BME280;35163;48.878;18.040;2023-04-28T07:07:33;98829.00;;;13.43;40.01
49297;BME280;35163;48.878;18.040;2023-04-28T07:10:00;98828.28;;;13.65;39.29
49297;BME280;35163;48.878;18.040;2023-04-28T07:12:27;98817.41;;;13.77;39.47
49297;BME280;35163;48.878;18.040;2023-04-28T07:14:54;98816.31;;;13.83;38.02
49297;BME280;35163;48.878;18.040;2023-04-28T07:17:21;98817.31;;;14.03;39.19
49297;BME280;35163;48.878;18.040;2023-04-28T07:19:48;98812.47;;;14.16;40.56
49297;BME280;35163;48.878;18.040;2023-04-28T07:22:16;98815.53;;;14.26;39.45
49297;BME280;35163;48.878;18.040;2023-04-28T07:24:43;98816.91;;;14.34;38.09
49297;BME280;35163;48.878;18.040;2023-04-28T07:27:10;98811.19;;;14.26;35.98
49297;BME280;35163;48.878;18.040;2023-04-28T07:29:37;98804.69;;;14.37;36.76
49297;BME280;35163;48.878;18.040;2023-04-28T07:32:03;98802.34;;;14.51;37.76
49297;BME280;35163;48.878;18.040;2023-04-28T07:34:39;98794.03;;;14.64;36.92
49297;BME280;35163;48.878;18.040;2023-04-28T07:37:06;98792.75;;;14.74;36.64
49297;BME280;35163;48.878;18.040;2023-04-28T07:39:36;98783.66;;;14.85;35.77
49297;BME280;35163;48.878;18.040;2023-04-28T07:42:04;98784.97;;;14.95;35.18
49297;BME280;35163;48.878;18.040;2023-04-28T07:44:31;98782.22;;;14.98;35.10
49297;BME280;35163;48.878;18.040;2023-04-28T07:46:58;98776.25;;;15.15;36.33
49297;BME280;35163;48.878;18.040;2023-04-28T07:49:27;98774.72;;;15.30;37.40
49297;BME280;35163;48.878;18.040;2023-04-28T07:51:54;98773.38;;;15.41;36.02
49297;BME280;35163;48.878;18.040;2023-04-28T07:54:22;98769.13;;;15.58;35.96
49297;BME280;35163;48.878;18.040;2023-04-28T07:56:51;98775.44;;;15.53;33.26
49297;BME280;35163;48.878;18.040;2023-04-28T07:59:18;98775.97;;;15.60;33.81
49297;BME280;35163;48.878;18.040;2023-04-28T08:01:45;98775.47;;;15.71;35.16
49297;BME280;35163;48.878;18.040;2023-04-28T08:04:12;98779.22;;;15.85;34.48
49297;BME280;35163;48.878;18.040;2023-04-28T08:06:39;98773.75;;;15.89;31.88
49297;BME280;35163;48.878;18.040;2023-04-28T08:09:06;98764.78;;;15.95;32.03
49297;BME280;35163;48.878;18.040;2023-04-28T08:11:33;98772.56;;;15.97;30.97
49297;BME280;35163;48.878;18.040;2023-04-28T08:14:00;98770.78;;;15.97;30.64
49297;BME280;35163;48.878;18.040;2023-04-28T08:16:29;98771.84;;;15.93;31.30
49297;BME280;35163;48.878;18.040;2023-04-28T08:18:57;98766.56;;;15.95;32.32
49297;BME280;35163;48.878;18.040;2023-04-28T08:21:25;98779.44;;;15.98;31.00
49297;BME280;35163;48.878;18.040;2023-04-28T08:23:52;98768.41;;;15.73;30.14
49297;BME280;35163;48.878;18.040;2023-04-28T08:26:19;98768.78;;;15.85;31.13
49297;BME280;35163;48.878;18.040;2023-04-28T08:28:46;98763.56;;;15.85;30.14
49297;BME280;35163;48.878;18.040;2023-04-28T08:31:12;98760.03;;;15.86;31.14
49297;BME280;35163;48.878;18.040;2023-04-28T08:33:39;98763.25;;;15.91;31.55
49297;BME280;35163;48.878;18.040;2023-04-28T08:36:10;98756.34;;;15.90;31.39
49297;BME280;35163;48.878;18.040;2023-04-28T08:38:40;98757.88;;;15.94;30.95
49297;BME280;35163;48.878;18.040;2023-04-28T08:41:07;98754.09;;;15.82;31.02
49297;BME280;35163;48.878;18.040;2023-04-28T08:43:35;98746.22;;;15.84;30.96
49297;BME280;35163;48.878;18.040;2023-04-28T08:46:06;98750.03;;;15.76;30.36
49297;BME280;35163;48.878;18.040;2023-04-28T08:48:41;98758.22;;;15.69;30.45
49297;BME280;35163;48.878;18.040;2023-04-28T08:51:10;98749.44;;;15.52;30.76
49297;BME280;35163;48.878;18.040;2023-04-28T08:53:43;98746.63;;;15.57;31.82
49297;BME280;35163;48.878;18.040;2023-04-28T08:56:32;98748.91;;;15.63;31.61
49297;BME280;35163;48.878;18.040;2023-04-28T08:59:03;98750.41;;;15.69;31.50
49297;BME280;35163;48.878;18.040;2023-04-28T09:01:30;98754.13;;;15.63;31.61
49297;BME280;35163;48.878;18.040;2023-04-28T09:04:01;98761.06;;;15.64;31.60
49297;BME280;35163;48.878;18.040;2023-04-28T09:06:36;98756.09;;;15.58;31.49
49297;BME280;35163;48.878;18.040;2023-04-28T09:11:55;98759.72;;;15.55;32.73
49297;BME280;35163;48.878;18.040;2023-04-28T09:14:22;98766.75;;;15.53;31.50
49297;BME280;35163;48.878;18.040;2023-04-28T09:16:50;98763.28;;;15.52;31.44
49297;BME280;35163;48.878;18.040;2023-04-28T09:19:17;98755.56;;;15.51;32.34
49297;BME280;35163;48.878;18.040;2023-04-28T09:21:52;98755.63;;;15.49;31.35
49297;BME280;35163;48.878;18.040;2023-04-28T09:24:36;98751.13;;;15.53;32.32
49297;BME280;35163;48.878;18.040;2023-04-28T09:27:09;98749.38;;;15.53;31.65
49297;BME280;35163;48.878;18.040;2023-04-28T09:29:38;98741.25;;;15.60;32.15
49297;BME280;35163;48.878;18.040;2023-04-28T09:32:21;98737.28;;;15.70;32.57
49297;BME280;35163;48.878;18.040;2023-04-28T09:34:50;98732.63;;;15.77;32.18
49297;BME280;35163;48.878;18.040;2023-04-28T09:37:19;98726.47;;;15.78;31.93
49297;BME280;35163;48.878;18.040;2023-04-28T09:39:47;98731.34;;;15.86;31.12
49297;BME280;35163;48.878;18.040;2023-04-28T09:42:36;98724.31;;;15.88;30.05
49297;BME280;35163;48.878;18.040;2023-04-28T09:45:10;98715.47;;;15.90;30.32
49297;BME280;35163;48.878;18.040;2023-04-28T09:47:39;98715.63;;;15.87;30.42
49297;BME280;35163;48.878;18.040;2023-04-28T09:50:11;98709.56;;;15.87;29.83
49297;BME280;35163;48.878;18.040;2023-04-28T09:52:41;98705.91;;;15.91;29.94
49297;BME280;35163;48.878;18.040;2023-04-28T09:55:11;98701.56;;;15.90;29.99
49297;BME280;35163;48.878;18.040;2023-04-28T09:57:38;98697.13;;;15.92;30.07
49297;BME280;35163;48.878;18.040;2023-04-28T10:00:06;98700.69;;;15.91;30.04
49297;BME280;35163;48.878;18.040;2023-04-28T10:02:36;98693.75;;;15.90;30.31
49297;BME280;35163;48.878;18.040;2023-04-28T10:05:07;98691.47;;;15.84;29.63
49297;BME280;35163;48.878;18.040;2023-04-28T10:07:40;98685.47;;;15.82;30.35
49297;BME280;35163;48.878;18.040;2023-04-28T10:10:07;98681.97;;;15.83;30.03
49297;BME280;35163;48.878;18.040;2023-04-28T10:12:34;98678.50;;;15.82;29.94
49297;BME280;35163;48.878;18.040;2023-04-28T10:15:05;98669.69;;;15.85;30.45
49297;BME280;35163;48.878;18.040;2023-04-28T10:17:33;98665.53;;;15.81;30.08
49297;BME280;35163;48.878;18.040;2023-04-28T10:20:05;98664.78;;;15.78;30.26
49297;BME280;35163;48.878;18.040;2023-04-28T10:25:36;98664.94;;;15.75;30.71
49297;BME280;35163;48.878;18.040;2023-04-28T10:28:05;98657.34;;;15.71;30.38
49297;BME280;35163;48.878;18.040;2023-04-28T10:30:33;98656.50;;;15.70;30.91
49297;BME280;35163;48.878;18.040;2023-04-28T10:38:14;98638.47;;;15.65;30.69
49297;BME280;35163;48.878;18.040;2023-04-28T10:40:49;98633.03;;;15.70;31.21
49297;BME280;35163;48.878;18.040;2023-04-28T10:56:14;98608.63;;;15.71;32.05
49297;BME280;35163;48.878;18.040;2023-04-28T10:58:42;98611.25;;;15.71;31.50
49297;BME280;35163;48.878;18.040;2023-04-28T11:08:55;98609.66;;;15.69;32.10
49297;BME280;35163;48.878;18.040;2023-04-28T11:11:32;98613.84;;;15.71;31.56
49297;BME280;35163;48.878;18.040;2023-04-28T11:14:34;98603.97;;;15.78;32.04
49297;BME280;35163;48.878;18.040;2023-04-28T11:17:02;98610.19;;;15.75;31.98
49297;BME280;35163;48.878;18.040;2023-04-28T11:19:41;98609.19;;;15.78;32.59
49297;BME280;35163;48.878;18.040;2023-04-28T11:22:15;98613.50;;;15.79;32.23
49297;BME280;35163;48.878;18.040;2023-04-28T11:24:59;98602.75;;;15.67;31.40
49297;BME280;35163;48.878;18.040;2023-04-28T11:27:27;98596.63;;;15.69;32.44
49297;BME280;35163;48.878;18.040;2023-04-28T11:29:55;98604.19;;;15.73;32.29
49297;BME280;35163;48.878;18.040;2023-04-28T11:32:29;98596.31;;;15.75;32.36
49297;BME280;35163;48.878;18.040;2023-04-28T11:34:56;98601.50;;;15.75;32.32
49297;BME280;35163;48.878;18.040;2023-04-28T11:37:23;98592.34;;;15.67;32.11
49297;BME280;35163;48.878;18.040;2023-04-28T11:39:50;98587.78;;;15.71;32.86
49297;BME280;35163;48.878;18.040;2023-04-28T11:42:17;98583.06;;;15.62;32.52
49297;BME280;35163;48.878;18.040;2023-04-28T11:44:51;98575.00;;;15.66;32.65
49297;BME280;35163;48.878;18.040;2023-04-28T11:47:33;98567.25;;;15.65;32.84
49297;BME280;35163;48.878;18.040;2023-04-28T11:50:00;98570.63;;;15.67;32.44
49297;BME280;35163;48.878;18.040;2023-04-28T11:52:28;98567.00;;;15.70;33.65
49297;BME280;35163;48.878;18.040;2023-04-28T11:54:58;98562.97;;;15.64;33.22
49297;BME280;35163;48.878;18.040;2023-04-28T11:57:28;98559.28;;;15.68;33.60
49297;BME280;35163;48.878;18.040;2023-04-28T12:00:16;98542.81;;;15.67;32.80
49297;BME280;35163;48.878;18.040;2023-04-28T12:02:47;98543.09;;;15.61;32.68
49297;BME280;35163;48.878;18.040;2023-04-28T12:05:15;98533.38;;;15.65;32.02
49297;BME280;35163;48.878;18.040;2023-04-28T12:07:43;98526.63;;;15.61;32.15
49297;BME280;35163;48.878;18.040;2023-04-28T12:10:12;98535.22;;;15.63;32.39
49297;BME280;35163;48.878;18.040;2023-04-28T12:12:41;98526.41;;;15.65;32.75
49297;BME280;35163;48.878;18.040;2023-04-28T12:15:20;98511.53;;;15.67;33.31
49297;BME280;35163;48.878;18.040;2023-04-28T12:17:49;98510.53;;;15.70;33.42
49297;BME280;35163;48.878;18.040;2023-04-28T12:20:36;98514.19;;;15.66;32.59
49297;BME280;35163;48.878;18.040;2023-04-28T12:23:04;98514.75;;;15.73;32.89
49297;BME280;35163;48.878;18.040;2023-04-28T12:25:31;98503.63;;;15.69;32.67
49297;BME280;35163;48.878;18.040;2023-04-28T12:28:05;98512.88;;;15.75;32.18
49297;BME280;35163;48.878;18.040;2023-04-28T12:30:35;98520.53;;;15.78;32.27
49297;BME280;35163;48.878;18.040;2023-04-28T12:33:23;98506.84;;;15.74;32.34
49297;BME280;35163;48.878;18.040;2023-04-28T12:35:50;98506.84;;;15.74;32.30
49297;BME280;35163;48.878;18.040;2023-04-28T12:38:21;98510.38;;;15.73;32.59
49297;BME280;35163;48.878;18.040;2023-04-28T12:40:47;98509.59;;;15.71;32.13
49297;BME280;35163;48.878;18.040;2023-04-28T12:43:14;98515.66;;;15.72;32.30
49297;BME280;35163;48.878;18.040;2023-04-28T12:45:40;98521.56;;;15.75;32.48
49297;BME280;35163;48.878;18.040;2023-04-28T12:48:07;98530.91;;;15.79;32.82
49297;BME280;35163;48.878;18.040;2023-04-28T12:50:37;98528.91;;;15.85;32.25
49297;BME280;35163;48.878;18.040;2023-04-28T12:53:03;98527.06;;;15.87;32.39
49297;BME280;35163;48.878;18.040;2023-04-28T12:55:30;98513.03;;;15.89;33.21
49297;BME280;35163;48.878;18.040;2023-04-28T12:57:57;98513.94;;;15.88;33.04
49297;BME280;35163;48.878;18.040;2023-04-28T13:00:24;98486.34;;;15.84;32.81
49297;BME280;35163;48.878;18.040;2023-04-28T13:02:51;98487.34;;;15.82;32.46
49297;BME280;35163;48.878;18.040;2023-04-28T13:05:18;98485.44;;;15.85;33.05
49297;BME280;35163;48.878;18.040;2023-04-28T13:07:46;98486.75;;;15.76;33.42
49297;BME280;35163;48.878;18.040;2023-04-28T13:10:14;98489.94;;;15.82;33.31
49297;BME280;35163;48.878;18.040;2023-04-28T13:12:41;98484.13;;;15.76;33.53
49297;BME280;35163;48.878;18.040;2023-04-28T13:15:09;98479.53;;;15.82;33.43
49297;BME280;35163;48.878;18.040;2023-04-28T13:17:38;98486.53;;;15.81;33.66
49297;BME280;35163;48.878;18.040;2023-04-28T13:20:06;98477.69;;;15.84;33.72
49297;BME280;35163;48.878;18.040;2023-04-28T13:22:33;98487.34;;;15.82;33.44
49297;BME280;35163;48.878;18.040;2023-04-28T13:24:59;98472.47;;;15.84;33.59
49297;BME280;35163;48.878;18.040;2023-04-28T13:27:26;98461.78;;;15.88;34.14
49297;BME280;35163;48.878;18.040;2023-04-28T13:29:55;98456.50;;;15.90;34.10
49297;BME280;35163;48.878;18.040;2023-04-28T13:32:24;98452.97;;;15.91;34.17